Briefing drone pour Annecy-le-vieux

Rechercher une autre localisation

Conditions de vol :


Nous sommes le : Lundi 12 avril 2021
Il est 00:51 UTC (02:51 LT)

Lever de soleil : 04:27 UTC (06:27 LT)
Coucher de soleil : 18:44 UTC (20:44 LT)

Météo

L'essentiel des conditions de vol

VIGILANCE MÉTÉO FRANCE - Haute-Savoie (74)
Vigilance Jaune : Neige-verglas / Pluie-inondation / Orages / Avalanches
CARTE TEMSI
CARTES DES FRONTS
METAR de LFLP
LFLP 120030Z AUTO 28005KT 230V320 9000 RA BKN013 OVC018 05/04 Q1021

Date d'émission: 12/04/2021
Heure d'émission: 00:30 UTC
Vent: 280° (variable du 230° au 320°) pour 5 KT (9 km/h)
Visibilité horizontale: 9000 m
Plafond :
- Nuages morcelés à 1300ft (396m)
- Couvert à 1800ft (549m)
Température: 5 °C
Point de rosée: 4 °C
Humidité: 93%
Pression (QNH): 1021 hPa
Conditions: Pluie
TAF de LFLP
AMD LFLP 111911Z 1119/1215 CNL

Conditions prévues :

Heure d'émission : Bulletin éffectué le 11 à 19:00 UTC
Prévision : Valide du 11 a 19:00 UTC au 12 a 15:00 UTC
Nuages : à 0ft (0 m)
WEBCAM POUR ANNECY-LE-VIEUX

Réglementation

Voler en sécurité

CARTES AERONAUTIQUE 1/500.000
CARTES VAC (LFLP)
SUP AIP




Chargement des AIP...
NOTAM (ANNECY-LE-VIEUX + Terrain à proximité / FIR )




Chargement des NOTAMS...
CONTACT PREFECTURE 74


Avertissement : Les données mises à disposition sont indicatives. Oxygène Drone ne pourra être tenu responsable de dégâts causés aux biens et aux personnes.